sensor_id;sensor_type;location;lat;lon;timestamp;temperature;humidity
71084;DHT22;58741;52.672;13.548;2023-08-06T00:00:19;17.20;99.90
71084;DHT22;58741;52.672;13.548;2023-08-06T00:02:45;17.20;99.90
71084;DHT22;58741;52.672;13.548;2023-08-06T00:05:11;17.20;99.90
71084;DHT22;58741;52.672;13.548;2023-08-06T00:07:36;17.20;99.90
71084;DHT22;58741;52.672;13.548;2023-08-06T00:10:02;17.20;99.90
71084;DHT22;58741;52.672;13.548;2023-08-06T00:12:27;17.20;99.90
71084;DHT22;58741;52.672;13.548;2023-08-06T00:14:54;17.20;99.90
71084;DHT22;58741;52.672;13.548;2023-08-06T00:17:19;17.20;99.90
71084;DHT22;58741;52.672;13.548;2023-08-06T00:19:45;17.20;99.90
71084;DHT22;58741;52.672;13.548;2023-08-06T00:22:11;17.20;99.90
71084;DHT22;58741;52.672;13.548;2023-08-06T00:24:36;17.20;99.90
71084;DHT22;58741;52.672;13.548;2023-08-06T00:27:02;17.20;99.90
71084;DHT22;58741;52.672;13.548;2023-08-06T00:29:28;17.20;99.90
71084;DHT22;58741;52.672;13.548;2023-08-06T00:31:53;17.20;99.90
71084;DHT22;58741;52.672;13.548;2023-08-06T00:34:19;17.20;99.90
71084;DHT22;58741;52.672;13.548;2023-08-06T00:36:45;17.20;99.90
71084;DHT22;58741;52.672;13.548;2023-08-06T00:39:11;17.20;99.90
71084;DHT22;58741;52.672;13.548;2023-08-06T00:41:37;17.20;99.90
71084;DHT22;58741;52.672;13.548;2023-08-06T00:44:03;17.20;99.90
71084;DHT22;58741;52.672;13.548;2023-08-06T00:46:29;17.20;99.90
71084;DHT22;58741;52.672;13.548;2023-08-06T00:48:55;17.20;99.90
71084;DHT22;58741;52.672;13.548;2023-08-06T00:51:22;17.20;99.90
71084;DHT22;58741;52.672;13.548;2023-08-06T00:53:49;17.20;99.90
71084;DHT22;58741;52.672;13.548;2023-08-06T00:56:15;17.20;99.90
71084;DHT22;58741;52.672;13.548;2023-08-06T00:58:41;17.20;99.90
71084;DHT22;58741;52.672;13.548;2023-08-06T01:01:07;17.20;99.90
71084;DHT22;58741;52.672;13.548;2023-08-06T01:03:33;17.20;99.90
71084;DHT22;58741;52.672;13.548;2023-08-06T01:06:00;17.20;99.90
71084;DHT22;58741;52.672;13.548;2023-08-06T01:13:45;17.10;99.90
71084;DHT22;58741;52.672;13.548;2023-08-06T01:16:15;17.20;99.90
71084;DHT22;58741;52.672;13.548;2023-08-06T01:18:42;17.10;99.90
71084;DHT22;58741;52.672;13.548;2023-08-06T01:21:13;17.10;99.90
71084;DHT22;58741;52.672;13.548;2023-08-06T01:23:39;17.10;99.90
71084;DHT22;58741;52.672;13.548;2023-08-06T01:26:33;17.10;99.90
71084;DHT22;58741;52.672;13.548;2023-08-06T01:29:07;17.10;99.90
71084;DHT22;58741;52.672;13.548;2023-08-06T01:31:37;17.10;99.90
71084;DHT22;58741;52.672;13.548;2023-08-06T01:34:05;17.10;99.90
71084;DHT22;58741;52.672;13.548;2023-08-06T01:36:32;17.10;99.90
71084;DHT22;58741;52.672;13.548;2023-08-06T01:39:00;17.10;99.90
71084;DHT22;58741;52.672;13.548;2023-08-06T01:41:25;17.10;99.90
71084;DHT22;58741;52.672;13.548;2023-08-06T01:43:51;17.10;99.90
71084;DHT22;58741;52.672;13.548;2023-08-06T01:46:16;17.10;99.90
71084;DHT22;58741;52.672;13.548;2023-08-06T01:48:44;17.10;99.90
71084;DHT22;58741;52.672;13.548;2023-08-06T01:51:09;17.10;99.90
71084;DHT22;58741;52.672;13.548;2023-08-06T01:53:35;17.00;99.90
71084;DHT22;58741;52.672;13.548;2023-08-06T01:56:01;17.00;99.90
71084;DHT22;58741;52.672;13.548;2023-08-06T01:58:27;17.10;99.90
71084;DHT22;58741;52.672;13.548;2023-08-06T02:00:52;17.00;99.90
71084;DHT22;58741;52.672;13.548;2023-08-06T02:03:18;17.00;99.90
71084;DHT22;58741;52.672;13.548;2023-08-06T02:05:43;17.00;99.90
71084;DHT22;58741;52.672;13.548;2023-08-06T02:08:09;17.00;99.90
71084;DHT22;58741;52.672;13.548;2023-08-06T02:10:34;17.00;99.90
71084;DHT22;58741;52.672;13.548;2023-08-06T02:13:00;17.00;99.90
71084;DHT22;58741;52.672;13.548;2023-08-06T02:15:26;17.00;99.90
71084;DHT22;58741;52.672;13.548;2023-08-06T02:17:51;17.00;99.90
71084;DHT22;58741;52.672;13.548;2023-08-06T02:20:17;17.00;99.90
71084;DHT22;58741;52.672;13.548;2023-08-06T02:22:42;16.90;99.90
71084;DHT22;58741;52.672;13.548;2023-08-06T02:25:08;16.90;99.90
71084;DHT22;58741;52.672;13.548;2023-08-06T02:27:34;16.90;99.90
71084;DHT22;58741;52.672;13.548;2023-08-06T02:30:00;16.90;99.90
71084;DHT22;58741;52.672;13.548;2023-08-06T02:32:26;16.90;99.90
71084;DHT22;58741;52.672;13.548;2023-08-06T02:34:51;16.90;99.90
71084;DHT22;58741;52.672;13.548;2023-08-06T02:37:17;16.90;99.90
71084;DHT22;58741;52.672;13.548;2023-08-06T02:39:44;16.90;99.90
71084;DHT22;58741;52.672;13.548;2023-08-06T02:42:10;16.90;99.90
71084;DHT22;58741;52.672;13.548;2023-08-06T02:44:36;16.90;99.90
71084;DHT22;58741;52.672;13.548;2023-08-06T02:47:02;16.90;99.90
71084;DHT22;58741;52.672;13.548;2023-08-06T02:49:27;16.90;99.90
71084;DHT22;58741;52.672;13.548;2023-08-06T02:51:53;16.80;99.90
71084;DHT22;58741;52.672;13.548;2023-08-06T02:54:19;16.80;99.90
71084;DHT22;58741;52.672;13.548;2023-08-06T02:56:45;16.80;99.90
71084;DHT22;58741;52.672;13.548;2023-08-06T02:59:18;16.80;99.90
71084;DHT22;58741;52.672;13.548;2023-08-06T03:01:58;16.80;99.90
71084;DHT22;58741;52.672;13.548;2023-08-06T03:04:32;16.80;99.90
71084;DHT22;58741;52.672;13.548;2023-08-06T03:06:58;16.80;99.90
71084;DHT22;58741;52.672;13.548;2023-08-06T03:09:29;16.80;99.90
71084;DHT22;58741;52.672;13.548;2023-08-06T03:11:55;16.80;99.90
71084;DHT22;58741;52.672;13.548;2023-08-06T03:14:21;16.70;99.90
71084;DHT22;58741;52.672;13.548;2023-08-06T03:16:46;16.70;99.90
71084;DHT22;58741;52.672;13.548;2023-08-06T03:19:14;16.70;99.90
71084;DHT22;58741;52.672;13.548;2023-08-06T03:21:40;16.70;99.90
71084;DHT22;58741;52.672;13.548;2023-08-06T03:24:06;16.70;99.90
71084;DHT22;58741;52.672;13.548;2023-08-06T03:26:34;16.70;99.90
71084;DHT22;58741;52.672;13.548;2023-08-06T03:29:01;16.70;99.90
71084;DHT22;58741;52.672;13.548;2023-08-06T03:31:29;16.70;99.90
71084;DHT22;58741;52.672;13.548;2023-08-06T03:33:55;16.70;99.90
71084;DHT22;58741;52.672;13.548;2023-08-06T03:36:24;16.60;99.90
71084;DHT22;58741;52.672;13.548;2023-08-06T03:38:51;16.60;99.90
71084;DHT22;58741;52.672;13.548;2023-08-06T03:41:17;16.60;99.90
71084;DHT22;58741;52.672;13.548;2023-08-06T03:43:43;16.60;99.90
71084;DHT22;58741;52.672;13.548;2023-08-06T03:46:14;16.60;99.90
71084;DHT22;58741;52.672;13.548;2023-08-06T03:48:40;16.60;99.90
71084;DHT22;58741;52.672;13.548;2023-08-06T03:51:06;16.60;99.90
71084;DHT22;58741;52.672;13.548;2023-08-06T03:53:31;16.60;99.90
71084;DHT22;58741;52.672;13.548;2023-08-06T03:55:58;16.60;99.90
71084;DHT22;58741;52.672;13.548;2023-08-06T03:58:26;16.60;99.90
71084;DHT22;58741;52.672;13.548;2023-08-06T04:01:02;16.60;99.90
71084;DHT22;58741;52.672;13.548;2023-08-06T04:03:34;16.60;99.90
71084;DHT22;58741;52.672;13.548;2023-08-06T04:05:59;16.60;99.90
71084;DHT22;58741;52.672;13.548;2023-08-06T04:08:26;16.60;99.90
71084;DHT22;58741;52.672;13.548;2023-08-06T04:10:52;16.60;99.90
71084;DHT22;58741;52.672;13.548;2023-08-06T04:13:19;16.60;99.90
71084;DHT22;58741;52.672;13.548;2023-08-06T04:15:45;16.60;99.90
71084;DHT22;58741;52.672;13.548;2023-08-06T04:18:10;16.50;99.90
71084;DHT22;58741;52.672;13.548;2023-08-06T04:20:46;16.60;99.90
71084;DHT22;58741;52.672;13.548;2023-08-06T04:23:12;16.50;99.90
71084;DHT22;58741;52.672;13.548;2023-08-06T04:25:38;16.50;99.90
71084;DHT22;58741;52.672;13.548;2023-08-06T04:28:05;16.50;99.90
71084;DHT22;58741;52.672;13.548;2023-08-06T04:30:31;16.50;99.90
71084;DHT22;58741;52.672;13.548;2023-08-06T04:32:57;16.60;99.90
71084;DHT22;58741;52.672;13.548;2023-08-06T04:35:24;16.50;99.90
71084;DHT22;58741;52.672;13.548;2023-08-06T04:37:51;16.50;99.90
71084;DHT22;58741;52.672;13.548;2023-08-06T04:40:16;16.50;99.90
71084;DHT22;58741;52.672;13.548;2023-08-06T04:42:43;16.60;99.90
71084;DHT22;58741;52.672;13.548;2023-08-06T04:45:08;16.50;99.90
71084;DHT22;58741;52.672;13.548;2023-08-06T04:47:34;16.60;99.90
71084;DHT22;58741;52.672;13.548;2023-08-06T04:50:00;16.50;99.90
71084;DHT22;58741;52.672;13.548;2023-08-06T04:52:25;16.50;99.90
71084;DHT22;58741;52.672;13.548;2023-08-06T04:54:55;16.50;99.90
71084;DHT22;58741;52.672;13.548;2023-08-06T04:57:20;16.50;99.90
71084;DHT22;58741;52.672;13.548;2023-08-06T04:59:46;16.50;99.90
71084;DHT22;58741;52.672;13.548;2023-08-06T05:02:12;16.50;99.90
71084;DHT22;58741;52.672;13.548;2023-08-06T05:04:37;16.50;99.90
71084;DHT22;58741;52.672;13.548;2023-08-06T05:07:04;16.50;99.90
71084;DHT22;58741;52.672;13.548;2023-08-06T05:09:30;16.60;99.90
71084;DHT22;58741;52.672;13.548;2023-08-06T05:11:56;16.50;99.90
71084;DHT22;58741;52.672;13.548;2023-08-06T05:14:21;16.60;99.90
71084;DHT22;58741;52.672;13.548;2023-08-06T05:16:47;16.60;99.90
71084;DHT22;58741;52.672;13.548;2023-08-06T05:19:12;16.60;99.90
71084;DHT22;58741;52.672;13.548;2023-08-06T05:21:38;16.60;99.90
71084;DHT22;58741;52.672;13.548;2023-08-06T05:24:04;16.60;99.90
71084;DHT22;58741;52.672;13.548;2023-08-06T05:26:29;16.60;99.90
71084;DHT22;58741;52.672;13.548;2023-08-06T05:28:55;16.60;99.90
71084;DHT22;58741;52.672;13.548;2023-08-06T05:31:20;16.60;99.90
71084;DHT22;58741;52.672;13.548;2023-08-06T05:33:46;16.60;99.90
71084;DHT22;58741;52.672;13.548;2023-08-06T05:36:11;16.60;99.90
71084;DHT22;58741;52.672;13.548;2023-08-06T05:38:37;16.60;99.90
71084;DHT22;58741;52.672;13.548;2023-08-06T05:41:03;16.60;99.90
71084;DHT22;58741;52.672;13.548;2023-08-06T05:43:29;16.60;99.90
71084;DHT22;58741;52.672;13.548;2023-08-06T05:45:56;16.70;99.90
71084;DHT22;58741;52.672;13.548;2023-08-06T05:48:21;16.70;99.90
71084;DHT22;58741;52.672;13.548;2023-08-06T05:50:50;16.70;99.90
71084;DHT22;58741;52.672;13.548;2023-08-06T05:53:15;16.70;99.90
71084;DHT22;58741;52.672;13.548;2023-08-06T05:55:41;16.70;99.90
71084;DHT22;58741;52.672;13.548;2023-08-06T05:58:06;16.80;99.90
71084;DHT22;58741;52.672;13.548;2023-08-06T06:00:32;16.80;99.90
71084;DHT22;58741;52.672;13.548;2023-08-06T06:02:58;16.80;99.90
71084;DHT22;58741;52.672;13.548;2023-08-06T06:05:23;16.80;99.90
71084;DHT22;58741;52.672;13.548;2023-08-06T06:07:49;16.80;99.90
71084;DHT22;58741;52.672;13.548;2023-08-06T06:10:14;16.90;99.90
71084;DHT22;58741;52.672;13.548;2023-08-06T06:12:40;16.90;99.90
71084;DHT22;58741;52.672;13.548;2023-08-06T06:15:06;16.90;99.90
71084;DHT22;58741;52.672;13.548;2023-08-06T06:17:32;16.90;99.90
71084;DHT22;58741;52.672;13.548;2023-08-06T06:19:57;16.90;99.90
71084;DHT22;58741;52.672;13.548;2023-08-06T06:22:23;17.00;99.90
71084;DHT22;58741;52.672;13.548;2023-08-06T06:24:49;17.00;99.90
71084;DHT22;58741;52.672;13.548;2023-08-06T06:27:14;17.00;99.90
71084;DHT22;58741;52.672;13.548;2023-08-06T06:29:40;17.10;99.90
71084;DHT22;58741;52.672;13.548;2023-08-06T06:32:05;17.10;99.90
71084;DHT22;58741;52.672;13.548;2023-08-06T06:34:31;17.10;99.90
71084;DHT22;58741;52.672;13.548;2023-08-06T06:36:57;17.10;99.90
71084;DHT22;58741;52.672;13.548;2023-08-06T06:39:22;17.10;99.90
71084;DHT22;58741;52.672;13.548;2023-08-06T06:41:48;17.10;99.90
71084;DHT22;58741;52.672;13.548;2023-08-06T06:44:23;17.10;99.90
71084;DHT22;58741;52.672;13.548;2023-08-06T06:46:48;17.10;99.90
71084;DHT22;58741;52.672;13.548;2023-08-06T06:49:14;17.20;99.90
71084;DHT22;58741;52.672;13.548;2023-08-06T06:51:39;17.20;99.90
71084;DHT22;58741;52.672;13.548;2023-08-06T06:54:05;17.20;99.90
71084;DHT22;58741;52.672;13.548;2023-08-06T06:56:30;17.20;99.90
71084;DHT22;58741;52.672;13.548;2023-08-06T06:58:56;17.30;99.90
71084;DHT22;58741;52.672;13.548;2023-08-06T07:01:21;17.30;99.90
71084;DHT22;58741;52.672;13.548;2023-08-06T07:03:47;17.30;99.90
71084;DHT22;58741;52.672;13.548;2023-08-06T07:06:13;17.40;99.90
71084;DHT22;58741;52.672;13.548;2023-08-06T07:08:38;17.40;99.90
71084;DHT22;58741;52.672;13.548;2023-08-06T07:11:05;17.40;99.90
71084;DHT22;58741;52.672;13.548;2023-08-06T07:13:32;17.40;99.90
71084;DHT22;58741;52.672;13.548;2023-08-06T07:15:57;17.40;99.90
71084;DHT22;58741;52.672;13.548;2023-08-06T07:18:24;17.50;99.90
71084;DHT22;58741;52.672;13.548;2023-08-06T07:20:53;17.50;99.90
71084;DHT22;58741;52.672;13.548;2023-08-06T07:23:20;17.60;99.90
71084;DHT22;58741;52.672;13.548;2023-08-06T07:25:47;17.60;99.90
71084;DHT22;58741;52.672;13.548;2023-08-06T07:28:13;17.60;99.90
71084;DHT22;58741;52.672;13.548;2023-08-06T07:30:40;17.60;99.90
71084;DHT22;58741;52.672;13.548;2023-08-06T07:33:06;17.60;99.90
71084;DHT22;58741;52.672;13.548;2023-08-06T07:35:32;17.70;99.90
71084;DHT22;58741;52.672;13.548;2023-08-06T07:37:58;17.70;99.90
71084;DHT22;58741;52.672;13.548;2023-08-06T07:40:23;17.70;99.90
71084;DHT22;58741;52.672;13.548;2023-08-06T07:42:49;17.70;99.90
71084;DHT22;58741;52.672;13.548;2023-08-06T07:45:15;17.70;99.90
71084;DHT22;58741;52.672;13.548;2023-08-06T07:47:40;17.80;99.90
71084;DHT22;58741;52.672;13.548;2023-08-06T07:50:06;17.80;99.90
71084;DHT22;58741;52.672;13.548;2023-08-06T07:52:32;17.90;99.90
71084;DHT22;58741;52.672;13.548;2023-08-06T07:54:57;17.90;99.90
71084;DHT22;58741;52.672;13.548;2023-08-06T07:57:24;17.90;99.90
71084;DHT22;58741;52.672;13.548;2023-08-06T07:59:49;17.90;99.90
71084;DHT22;58741;52.672;13.548;2023-08-06T08:02:15;17.90;99.90
71084;DHT22;58741;52.672;13.548;2023-08-06T08:04:41;17.90;99.90
71084;DHT22;58741;52.672;13.548;2023-08-06T08:07:06;17.90;99.90
71084;DHT22;58741;52.672;13.548;2023-08-06T08:09:34;17.90;99.90
71084;DHT22;58741;52.672;13.548;2023-08-06T08:12:00;17.90;99.90
71084;DHT22;58741;52.672;13.548;2023-08-06T08:14:28;18.00;99.90
71084;DHT22;58741;52.672;13.548;2023-08-06T08:16:54;18.00;99.90
71084;DHT22;58741;52.672;13.548;2023-08-06T08:19:20;18.00;99.90
71084;DHT22;58741;52.672;13.548;2023-08-06T08:21:46;18.00;99.90
71084;DHT22;58741;52.672;13.548;2023-08-06T08:24:12;18.00;99.90
71084;DHT22;58741;52.672;13.548;2023-08-06T08:26:37;18.00;99.90
71084;DHT22;58741;52.672;13.548;2023-08-06T08:29:03;18.00;99.90
71084;DHT22;58741;52.672;13.548;2023-08-06T08:31:28;18.10;99.90
71084;DHT22;58741;52.672;13.548;2023-08-06T08:33:55;18.10;99.90
71084;DHT22;58741;52.672;13.548;2023-08-06T08:36:20;18.10;99.90
71084;DHT22;58741;52.672;13.548;2023-08-06T08:38:46;18.20;99.90
71084;DHT22;58741;52.672;13.548;2023-08-06T08:41:12;18.20;99.90
71084;DHT22;58741;52.672;13.548;2023-08-06T08:43:38;18.20;99.90
71084;DHT22;58741;52.672;13.548;2023-08-06T08:46:06;18.20;99.90
71084;DHT22;58741;52.672;13.548;2023-08-06T08:48:32;18.20;99.90
71084;DHT22;58741;52.672;13.548;2023-08-06T08:50:58;18.20;99.90
71084;DHT22;58741;52.672;13.548;2023-08-06T08:55:58;18.30;99.90
71084;DHT22;58741;52.672;13.548;2023-08-06T08:58:24;18.30;99.90
71084;DHT22;58741;52.672;13.548;2023-08-06T09:00:50;18.30;99.90
71084;DHT22;58741;52.672;13.548;2023-08-06T09:03:17;18.30;99.90
71084;DHT22;58741;52.672;13.548;2023-08-06T09:05:49;18.40;99.90
71084;DHT22;58741;52.672;13.548;2023-08-06T09:08:18;18.40;99.90
71084;DHT22;58741;52.672;13.548;2023-08-06T09:10:44;18.40;99.90
71084;DHT22;58741;52.672;13.548;2023-08-06T09:13:12;18.40;99.90
71084;DHT22;58741;52.672;13.548;2023-08-06T09:15:39;18.40;99.90
71084;DHT22;58741;52.672;13.548;2023-08-06T09:18:11;18.40;99.90
71084;DHT22;58741;52.672;13.548;2023-08-06T09:20:40;18.40;99.90
71084;DHT22;58741;52.672;13.548;2023-08-06T09:23:09;18.40;99.90
71084;DHT22;58741;52.672;13.548;2023-08-06T09:25:38;18.40;99.90
71084;DHT22;58741;52.672;13.548;2023-08-06T09:28:06;18.40;99.90
71084;DHT22;58741;52.672;13.548;2023-08-06T09:30:36;18.40;99.90
71084;DHT22;58741;52.672;13.548;2023-08-06T09:33:02;18.40;99.90
71084;DHT22;58741;52.672;13.548;2023-08-06T09:35:29;18.30;99.90
71084;DHT22;58741;52.672;13.548;2023-08-06T09:38:03;18.30;99.90
71084;DHT22;58741;52.672;13.548;2023-08-06T09:40:32;18.30;99.90
71084;DHT22;58741;52.672;13.548;2023-08-06T09:42:58;18.40;99.90
71084;DHT22;58741;52.672;13.548;2023-08-06T09:45:30;18.40;99.90
71084;DHT22;58741;52.672;13.548;2023-08-06T09:47:57;18.40;99.90
71084;DHT22;58741;52.672;13.548;2023-08-06T09:50:31;18.40;99.90
71084;DHT22;58741;52.672;13.548;2023-08-06T09:52:58;18.40;99.90
71084;DHT22;58741;52.672;13.548;2023-08-06T09:55:24;18.40;99.90
71084;DHT22;58741;52.672;13.548;2023-08-06T09:57:52;18.50;99.90
71084;DHT22;58741;52.672;13.548;2023-08-06T10:00:18;18.50;99.90
71084;DHT22;58741;52.672;13.548;2023-08-06T10:02:46;18.50;99.90
71084;DHT22;58741;52.672;13.548;2023-08-06T10:05:12;18.50;99.90
71084;DHT22;58741;52.672;13.548;2023-08-06T10:07:38;18.50;99.90
71084;DHT22;58741;52.672;13.548;2023-08-06T10:10:05;18.50;99.90
71084;DHT22;58741;52.672;13.548;2023-08-06T10:12:39;18.50;99.90
71084;DHT22;58741;52.672;13.548;2023-08-06T10:15:09;18.50;99.90
71084;DHT22;58741;52.672;13.548;2023-08-06T10:17:37;18.50;99.90
71084;DHT22;58741;52.672;13.548;2023-08-06T10:20:05;18.50;99.90
71084;DHT22;58741;52.672;13.548;2023-08-06T10:22:33;18.50;99.90
71084;DHT22;58741;52.672;13.548;2023-08-06T10:25:00;18.50;99.90
71084;DHT22;58741;52.672;13.548;2023-08-06T10:27:40;18.50;99.90
71084;DHT22;58741;52.672;13.548;2023-08-06T10:32:58;18.50;99.90
71084;DHT22;58741;52.672;13.548;2023-08-06T10:35:35;18.60;99.90
71084;DHT22;58741;52.672;13.548;2023-08-06T10:38:13;18.50;99.90
71084;DHT22;58741;52.672;13.548;2023-08-06T10:40:40;18.50;99.90
71084;DHT22;58741;52.672;13.548;2023-08-06T10:43:06;18.50;99.90
71084;DHT22;58741;52.672;13.548;2023-08-06T10:45:35;18.50;99.90
71084;DHT22;58741;52.672;13.548;2023-08-06T10:48:01;18.50;99.90
71084;DHT22;58741;52.672;13.548;2023-08-06T10:50:27;18.50;99.90
71084;DHT22;58741;52.672;13.548;2023-08-06T10:52:53;18.40;99.90
71084;DHT22;58741;52.672;13.548;2023-08-06T10:55:26;18.50;99.90
71084;DHT22;58741;52.672;13.548;2023-08-06T10:57:53;18.50;99.90
71084;DHT22;58741;52.672;13.548;2023-08-06T11:00:21;18.50;99.90
71084;DHT22;58741;52.672;13.548;2023-08-06T11:02:47;18.50;99.90
71084;DHT22;58741;52.672;13.548;2023-08-06T11:05:14;18.50;99.90
71084;DHT22;58741;52.672;13.548;2023-08-06T11:07:40;18.50;99.90
71084;DHT22;58741;52.672;13.548;2023-08-06T11:10:07;18.50;99.90
71084;DHT22;58741;52.672;13.548;2023-08-06T11:12:33;18.50;99.90
71084;DHT22;58741;52.672;13.548;2023-08-06T11:15:00;18.50;99.90
71084;DHT22;58741;52.672;13.548;2023-08-06T11:17:27;18.50;99.90
71084;DHT22;58741;52.672;13.548;2023-08-06T11:19:53;18.50;99.90
71084;DHT22;58741;52.672;13.548;2023-08-06T11:22:21;18.50;99.90
71084;DHT22;58741;52.672;13.548;2023-08-06T11:24:47;18.50;99.90
71084;DHT22;58741;52.672;13.548;2023-08-06T11:27:13;18.50;99.90
71084;DHT22;58741;52.672;13.548;2023-08-06T11:29:42;18.50;99.90
71084;DHT22;58741;52.672;13.548;2023-08-06T11:32:09;18.50;99.90
71084;DHT22;58741;52.672;13.548;2023-08-06T11:34:35;18.50;99.90
71084;DHT22;58741;52.672;13.548;2023-08-06T11:37:03;18.50;99.90
71084;DHT22;58741;52.672;13.548;2023-08-06T11:39:34;18.60;99.90
71084;DHT22;58741;52.672;13.548;2023-08-06T11:42:02;18.60;99.90
71084;DHT22;58741;52.672;13.548;2023-08-06T11:44:30;18.60;99.90
71084;DHT22;58741;52.672;13.548;2023-08-06T11:46:59;18.60;99.90
71084;DHT22;58741;52.672;13.548;2023-08-06T11:49:40;18.60;99.90
71084;DHT22;58741;52.672;13.548;2023-08-06T11:52:25;18.60;99.90
71084;DHT22;58741;52.672;13.548;2023-08-06T11:55:01;18.60;99.90
71084;DHT22;58741;52.672;13.548;2023-08-06T11:57:31;18.70;99.90
71084;DHT22;58741;52.672;13.548;2023-08-06T12:00:04;18.60;99.90
71084;DHT22;58741;52.672;13.548;2023-08-06T12:02:43;18.60;99.90
71084;DHT22;58741;52.672;13.548;2023-08-06T12:05:14;18.60;99.90
71084;DHT22;58741;52.672;13.548;2023-08-06T12:07:48;18.60;99.90
71084;DHT22;58741;52.672;13.548;2023-08-06T12:10:14;18.60;99.90
71084;DHT22;58741;52.672;13.548;2023-08-06T12:12:40;18.60;99.90
71084;DHT22;58741;52.672;13.548;2023-08-06T12:15:07;18.60;99.90
71084;DHT22;58741;52.672;13.548;2023-08-06T12:17:33;18.60;99.90
71084;DHT22;58741;52.672;13.548;2023-08-06T12:19:59;18.60;99.90
71084;DHT22;58741;52.672;13.548;2023-08-06T12:22:25;18.70;99.90
71084;DHT22;58741;52.672;13.548;2023-08-06T12:24:50;18.70;99.90
71084;DHT22;58741;52.672;13.548;2023-08-06T12:27:16;18.70;99.90
71084;DHT22;58741;52.672;13.548;2023-08-06T12:29:43;18.60;99.90
71084;DHT22;58741;52.672;13.548;2023-08-06T12:32:10;18.70;99.90
71084;DHT22;58741;52.672;13.548;2023-08-06T12:34:35;18.70;99.90
71084;DHT22;58741;52.672;13.548;2023-08-06T12:37:02;18.70;99.90
71084;DHT22;58741;52.672;13.548;2023-08-06T12:39:28;18.70;99.90
71084;DHT22;58741;52.672;13.548;2023-08-06T12:41:55;18.70;99.90
71084;DHT22;58741;52.672;13.548;2023-08-06T12:44:21;18.70;99.90
71084;DHT22;58741;52.672;13.548;2023-08-06T12:46:46;18.70;99.90
71084;DHT22;58741;52.672;13.548;2023-08-06T12:49:12;18.70;99.90
71084;DHT22;58741;52.672;13.548;2023-08-06T12:51:37;18.70;99.90
71084;DHT22;58741;52.672;13.548;2023-08-06T12:54:03;18.70;99.90
71084;DHT22;58741;52.672;13.548;2023-08-06T12:56:29;18.60;99.90
71084;DHT22;58741;52.672;13.548;2023-08-06T12:58:55;18.60;99.90
71084;DHT22;58741;52.672;13.548;2023-08-06T13:01:20;18.60;99.90
71084;DHT22;58741;52.672;13.548;2023-08-06T13:03:46;18.60;99.90
71084;DHT22;58741;52.672;13.548;2023-08-06T13:06:11;18.60;99.90
71084;DHT22;58741;52.672;13.548;2023-08-06T13:08:37;18.50;99.90
71084;DHT22;58741;52.672;13.548;2023-08-06T13:11:03;18.60;99.90
71084;DHT22;58741;52.672;13.548;2023-08-06T13:13:28;18.50;99.90
71084;DHT22;58741;52.672;13.548;2023-08-06T13:15:54;18.60;99.90
71084;DHT22;58741;52.672;13.548;2023-08-06T13:18:20;18.60;99.90
71084;DHT22;58741;52.672;13.548;2023-08-06T13:20:45;18.60;99.90
71084;DHT22;58741;52.672;13.548;2023-08-06T13:23:12;18.60;99.90
71084;DHT22;58741;52.672;13.548;2023-08-06T13:25:41;18.50;99.90
71084;DHT22;58741;52.672;13.548;2023-08-06T13:28:06;18.50;99.90
71084;DHT22;58741;52.672;13.548;2023-08-06T13:30:32;18.50;99.90
71084;DHT22;58741;52.672;13.548;2023-08-06T13:32:57;18.50;99.90
71084;DHT22;58741;52.672;13.548;2023-08-06T13:35:23;18.50;99.90
71084;DHT22;58741;52.672;13.548;2023-08-06T13:37:49;18.50;99.90
71084;DHT22;58741;52.672;13.548;2023-08-06T13:40:15;18.50;99.90
71084;DHT22;58741;52.672;13.548;2023-08-06T13:42:41;18.40;99.90
71084;DHT22;58741;52.672;13.548;2023-08-06T13:45:06;18.40;99.90
71084;DHT22;58741;52.672;13.548;2023-08-06T13:47:32;18.40;99.90
71084;DHT22;58741;52.672;13.548;2023-08-06T13:49:58;18.40;99.90
71084;DHT22;58741;52.672;13.548;2023-08-06T13:52:26;18.30;99.90
71084;DHT22;58741;52.672;13.548;2023-08-06T13:54:53;18.30;99.90
71084;DHT22;58741;52.672;13.548;2023-08-06T13:57:18;18.30;99.90
71084;DHT22;58741;52.672;13.548;2023-08-06T13:59:44;18.30;99.90
71084;DHT22;58741;52.672;13.548;2023-08-06T14:02:10;18.30;99.90
71084;DHT22;58741;52.672;13.548;2023-08-06T14:04:36;18.20;99.90
71084;DHT22;58741;52.672;13.548;2023-08-06T14:07:03;18.20;99.90
71084;DHT22;58741;52.672;13.548;2023-08-06T14:09:29;18.20;99.90
71084;DHT22;58741;52.672;13.548;2023-08-06T14:11:54;18.20;99.90
71084;DHT22;58741;52.672;13.548;2023-08-06T14:14:20;18.10;99.90
71084;DHT22;58741;52.672;13.548;2023-08-06T14:16:51;18.20;99.90
71084;DHT22;58741;52.672;13.548;2023-08-06T14:19:17;18.10;99.90
71084;DHT22;58741;52.672;13.548;2023-08-06T14:21:43;18.10;99.90
71084;DHT22;58741;52.672;13.548;2023-08-06T14:24:08;18.00;99.90
71084;DHT22;58741;52.672;13.548;2023-08-06T14:26:34;18.00;99.90
71084;DHT22;58741;52.672;13.548;2023-08-06T14:29:00;18.00;99.90
71084;DHT22;58741;52.672;13.548;2023-08-06T14:31:26;18.00;99.90
71084;DHT22;58741;52.672;13.548;2023-08-06T14:33:52;17.90;99.90
71084;DHT22;58741;52.672;13.548;2023-08-06T14:36:18;17.90;99.90
71084;DHT22;58741;52.672;13.548;2023-08-06T14:38:43;17.90;99.90
71084;DHT22;58741;52.672;13.548;2023-08-06T14:41:09;17.90;99.90
71084;DHT22;58741;52.672;13.548;2023-08-06T14:43:35;17.90;99.90
71084;DHT22;58741;52.672;13.548;2023-08-06T14:46:00;17.90;99.90
71084;DHT22;58741;52.672;13.548;2023-08-06T14:48:26;17.90;99.90
71084;DHT22;58741;52.672;13.548;2023-08-06T14:50:51;17.80;99.90
71084;DHT22;58741;52.672;13.548;2023-08-06T14:53:17;17.80;99.90
71084;DHT22;58741;52.672;13.548;2023-08-06T14:55:42;17.80;99.90
71084;DHT22;58741;52.672;13.548;2023-08-06T14:58:08;17.80;99.90
71084;DHT22;58741;52.672;13.548;2023-08-06T15:00:34;17.80;99.90
71084;DHT22;58741;52.672;13.548;2023-08-06T15:02:59;17.70;99.90
71084;DHT22;58741;52.672;13.548;2023-08-06T15:05:25;17.80;99.90
71084;DHT22;58741;52.672;13.548;2023-08-06T15:18:40;17.70;99.90
71084;DHT22;58741;52.672;13.548;2023-08-06T15:21:05;17.70;99.90
71084;DHT22;58741;52.672;13.548;2023-08-06T15:23:31;17.70;99.90
71084;DHT22;58741;52.672;13.548;2023-08-06T15:25:57;17.70;99.90
71084;DHT22;58741;52.672;13.548;2023-08-06T15:28:22;17.70;99.90
71084;DHT22;58741;52.672;13.548;2023-08-06T15:30:49;17.70;99.90
71084;DHT22;58741;52.672;13.548;2023-08-06T15:33:15;17.70;99.90